Time;durP1;ratioP1;P1;durP2;ratioP2;P2;SDS_P1;SDS_P2;PMS_P1;PMS_P2;Temp;Humidity;BMP_temperature;BMP_pressure;BME280_temperature;BME280_humidity;BME280_pressure;Samples;Min_cycle;Max_cycle;Signal;HPM_P1;HPM_P2
2024/01/03 00:00:35;;;;;;;8.20;2.90;;;;;;;8.73;30.41;99960.75;105870;1254;60509;-49
2024/01/03 00:03:03;;;;;;;8.50;3.30;;;;;;;8.68;30.36;99954.82;105424;1260;60457;-49
2024/01/03 00:05:38;;;;;;;9.30;2.70;;;;;;;8.69;30.38;99952.48;105615;1255;64929;-48
2024/01/03 00:08:10;;;;;;;7.00;3.20;;;;;;;8.71;30.39;99941.66;105376;1259;60319;-48
2024/01/03 00:10:42;;;;;;;8.80;3.80;;;;;;;8.72;30.36;99946.81;105278;1262;62452;-49
2024/01/03 00:13:38;;;;;;;8.60;3.20;;;;;;;8.73;30.34;99945.98;105195;1258;61740;-48
2024/01/03 00:16:06;;;;;;;9.80;3.70;;;;;;;8.77;30.34;99948.41;105221;1269;60332;-49
2024/01/03 00:18:38;;;;;;;10.50;5.50;;;;;;;8.78;30.36;99941.67;105287;1258;65348;-47
2024/01/03 00:21:06;;;;;;;6.40;2.60;;;;;;;8.76;30.34;99939.02;105469;1259;61329;-47
2024/01/03 00:23:38;;;;;;;8.70;4.10;;;;;;;8.74;30.38;99938.95;105068;1257;63958;-50
2024/01/03 00:26:09;;;;;;;6.00;2.60;;;;;;;8.76;30.46;99939.19;105390;1257;61118;-48
2024/01/03 00:28:39;;;;;;;8.20;2.90;;;;;;;8.78;30.36;99946.34;105441;1254;60364;-49
2024/01/03 00:31:09;;;;;;;9.30;3.60;;;;;;;8.79;30.44;99939.09;105429;1255;64947;-48
2024/01/03 00:33:40;;;;;;;10.70;4.00;;;;;;;8.80;30.36;99943.39;105387;1261;69208;-49
2024/01/03 00:36:09;;;;;;;9.60;4.70;;;;;;;8.80;30.31;99941.14;105218;1260;62461;-51
2024/01/03 00:38:38;;;;;;;7.70;2.80;;;;;;;8.73;30.31;99945.88;105436;1260;60565;-48
2024/01/03 00:41:08;;;;;;;8.10;3.20;;;;;;;8.67;30.46;99940.59;105470;1260;60540;-48
2024/01/03 00:43:37;;;;;;;8.40;4.00;;;;;;;8.66;30.55;99939.05;105568;1260;64923;-48
2024/01/03 00:46:05;;;;;;;17.90;4.60;;;;;;;8.67;30.53;99933.76;105383;1254;61449;-49
2024/01/03 00:48:32;;;;;;;9.70;2.70;;;;;;;8.67;30.50;99934.68;105551;1261;64179;-48
2024/01/03 00:51:01;;;;;;;6.80;3.50;;;;;;;8.66;30.53;99929.32;105594;1259;60488;-49
2024/01/03 00:53:29;;;;;;;9.30;3.30;;;;;;;8.67;30.62;99928.48;105724;1260;60440;-49
2024/01/03 00:55:56;;;;;;;10.80;4.80;;;;;;;8.64;30.67;99929.60;105302;1260;63772;-49
2024/01/03 00:58:24;;;;;;;9.80;2.70;;;;;;;8.65;30.69;99932.01;105293;1260;60484;-49
2024/01/03 01:00:52;;;;;;;8.80;2.50;;;;;;;8.70;30.62;99926.52;105757;1256;64466;-50
2024/01/03 01:03:20;;;;;;;7.10;2.00;;;;;;;8.78;30.64;99922.20;105233;1262;60523;-49
2024/01/03 01:05:47;;;;;;;10.60;4.00;;;;;;;8.90;30.62;99920.92;105289;1254;60501;-49
2024/01/03 01:08:15;;;;;;;7.00;2.80;;;;;;;9.03;30.59;99918.99;105212;1257;63785;-48
2024/01/03 01:10:47;;;;;;;7.30;2.20;;;;;;;9.13;30.36;99919.45;105912;1260;61384;-48
2024/01/03 01:13:15;;;;;;;7.20;3.10;;;;;;;9.15;30.24;99921.77;105254;1257;63756;-48
2024/01/03 01:15:42;;;;;;;8.70;4.00;;;;;;;9.16;30.13;99925.17;105379;1254;60563;-48
2024/01/03 01:18:10;;;;;;;11.50;3.00;;;;;;;9.16;30.11;99918.16;105295;1255;60704;-49
2024/01/03 01:20:38;;;;;;;10.60;3.40;;;;;;;9.15;30.08;99918.38;105443;1254;64982;-49
2024/01/03 01:23:06;;;;;;;11.10;3.40;;;;;;;9.11;30.01;99909.77;105260;1254;60358;-47
2024/01/03 01:25:33;;;;;;;9.40;3.50;;;;;;;9.07;30.05;99911.86;105229;1260;63746;-48
2024/01/03 01:28:01;;;;;;;7.90;2.80;;;;;;;9.00;29.96;99917.52;105215;1258;60539;-49
2024/01/03 01:30:28;;;;;;;10.20;3.50;;;;;;;8.91;29.96;99907.54;105307;1254;60629;-48
2024/01/03 01:32:56;;;;;;;8.60;3.00;;;;;;;8.84;29.94;99904.95;105568;1254;64900;-48
2024/01/03 01:35:24;;;;;;;10.60;3.60;;;;;;;8.79;29.95;99904.84;105294;1258;61681;-49
2024/01/03 01:37:52;;;;;;;10.30;2.80;;;;;;;8.75;29.92;99911.80;105133;1258;63729;-50
2024/01/03 01:40:19;;;;;;;8.60;3.70;;;;;;;8.72;30.02;99912.07;105268;1260;60579;-48
2024/01/03 01:42:47;;;;;;;11.10;3.00;;;;;;;8.69;29.94;99909.81;105239;1257;60786;-48
2024/01/03 01:45:14;;;;;;;6.60;2.30;;;;;;;8.65;29.93;99913.44;105223;1255;63792;-48
2024/01/03 01:47:42;;;;;;;6.90;2.70;;;;;;;8.61;29.93;99903.66;105233;1259;61312;-49
2024/01/03 01:50:10;;;;;;;7.50;2.50;;;;;;;8.58;29.94;99899.87;105224;1254;63678;-50
2024/01/03 01:52:38;;;;;;;8.30;3.30;;;;;;;8.55;30.01;99887.70;105174;1264;60562;-47
2024/01/03 01:55:07;;;;;;;10.80;3.50;;;;;;;8.53;30.05;99892.36;105516;1259;60367;-50
2024/01/03 01:57:35;;;;;;;8.50;3.10;;;;;;;8.52;30.08;99887.04;105449;1260;65120;-49
2024/01/03 02:00:03;;;;;;;9.80;3.10;;;;;;;8.52;30.09;99880.89;105239;1261;60458;-50
2024/01/03 02:02:39;;;;;;;9.20;5.10;;;;;;;8.52;30.06;99887.02;105298;1257;64324;-49
2024/01/03 02:05:07;;;;;;;10.30;3.20;;;;;;;8.51;30.09;99895.52;105530;1254;60584;-49
2024/01/03 02:07:34;;;;;;;8.40;3.30;;;;;;;8.48;30.03;99913.27;105522;1254;60558;-49
2024/01/03 02:10:02;;;;;;;10.20;4.10;;;;;;;8.45;30.08;99903.36;105117;1258;66155;-48
2024/01/03 02:12:30;;;;;;;10.40;4.50;;;;;;;8.41;30.17;99908.52;105634;1260;61545;-49
2024/01/03 02:14:58;;;;;;;7.00;2.80;;;;;;;8.39;30.19;99909.54;105242;1257;63733;-50
2024/01/03 02:17:27;;;;;;;8.50;3.90;;;;;;;8.38;30.29;99910.27;105704;1260;60511;-50
2024/01/03 02:20:00;;;;;;;8.30;4.30;;;;;;;8.39;30.26;99905.02;105855;1257;60578;-50
2024/01/03 02:22:29;;;;;;;8.60;4.20;;;;;;;8.36;30.25;99895.77;105618;1257;64848;-48
2024/01/03 02:24:56;;;;;;;11.90;4.20;;;;;;;8.33;30.23;99895.46;105622;1254;61383;-49
2024/01/03 02:27:24;;;;;;;9.80;3.60;;;;;;;8.31;30.30;99903.55;105274;1259;62715;-50
2024/01/03 02:29:51;;;;;;;8.80;3.40;;;;;;;8.28;30.32;99899.16;105305;1260;62169;-49
2024/01/03 02:32:20;;;;;;;10.30;3.60;;;;;;;8.28;30.33;99892.20;105237;1259;61064;-50
2024/01/03 02:34:47;;;;;;;12.60;4.40;;;;;;;8.25;30.29;99890.87;105854;1254;65377;-49
2024/01/03 02:37:18;;;;;;;11.30;4.00;;;;;;;8.21;30.42;99891.19;105344;1255;61355;-48
2024/01/03 02:39:45;;;;;;;11.50;5.00;;;;;;;8.20;30.43;99885.30;105895;1262;62493;-48
2024/01/03 02:42:13;;;;;;;10.80;4.70;;;;;;;8.19;30.44;99882.77;105257;1257;60559;-48
2024/01/03 02:44:40;;;;;;;10.70;3.70;;;;;;;8.20;30.48;99874.36;105238;1255;60406;-49
2024/01/03 02:47:08;;;;;;;9.40;3.70;;;;;;;8.19;30.53;99885.23;105250;1254;65038;-50
2024/01/03 02:49:36;;;;;;;9.40;4.50;;;;;;;8.16;30.48;99881.23;105493;1260;61421;-49
2024/01/03 02:52:04;;;;;;;11.30;3.90;;;;;;;8.14;30.43;99883.02;105475;1257;63755;-49
2024/01/03 02:54:31;;;;;;;12.30;5.20;;;;;;;8.10;30.50;99881.90;105535;1255;60533;-50
2024/01/03 02:56:59;;;;;;;8.80;3.90;;;;;;;8.08;30.63;99874.02;105086;1254;318980;-50
2024/01/03 02:59:27;;;;;;;8.10;3.30;;;;;;;8.08;30.66;99883.68;105233;1260;65137;-49
2024/01/03 03:02:34;;;;;;;9.80;3.90;;;;;;;6.12;33.72;99896.58;102315;1294;601227;-48
2024/01/03 03:05:01;;;;;;;10.60;3.50;;;;;;;7.58;31.39;99905.77;104752;1266;59376;-50
2024/01/03 03:07:29;;;;;;;10.70;3.30;;;;;;;7.81;31.00;99899.85;104472;1266;60387;-50
2024/01/03 03:09:57;;;;;;;16.70;4.90;;;;;;;7.91;30.87;99896.25;104890;1266;62052;-49
2024/01/03 03:12:24;;;;;;;11.50;4.60;;;;;;;7.99;30.68;99892.37;104779;1270;70070;-50
2024/01/03 03:14:52;;;;;;;10.40;4.00;;;;;;;8.04;30.71;99890.98;104505;1270;63681;-50
2024/01/03 03:17:19;;;;;;;9.00;4.40;;;;;;;8.09;30.63;99896.30;103747;1269;1321762;-47
2024/01/03 03:19:47;;;;;;;10.50;4.20;;;;;;;8.10;30.62;99889.42;104755;1276;59111;-50
2024/01/03 03:22:15;;;;;;;10.00;3.30;;;;;;;8.12;30.59;99883.15;104722;1263;62084;-49
2024/01/03 03:24:42;;;;;;;9.20;3.10;;;;;;;8.14;30.65;99884.52;104633;1269;62329;-49
2024/01/03 03:27:10;;;;;;;6.50;2.50;;;;;;;8.17;30.68;99881.33;104659;1270;64883;-50
2024/01/03 03:29:37;;;;;;;9.80;2.70;;;;;;;8.30;30.57;99886.23;104765;1269;59753;-48
2024/01/03 03:32:06;;;;;;;10.00;2.90;;;;;;;8.42;30.44;99892.85;104663;1269;59685;-49
2024/01/03 03:34:34;;;;;;;8.50;2.70;;;;;;;8.51;30.22;99888.19;104852;1268;64142;-49
2024/01/03 03:37:01;;;;;;;7.70;2.60;;;;;;;8.59;30.10;99874.94;104688;1268;60284;-49
2024/01/03 03:39:29;;;;;;;9.50;3.00;;;;;;;8.71;29.95;99873.84;105029;1269;62470;-49
2024/01/03 03:41:57;;;;;;;7.70;3.20;;;;;;;8.84;29.94;99870.52;104797;1264;59656;-50
2024/01/03 03:44:24;;;;;;;8.10;3.20;;;;;;;8.94;29.89;99866.77;104793;1270;59775;-49
2024/01/03 03:46:52;;;;;;;9.20;3.30;;;;;;;9.00;29.84;99856.25;104692;1264;64151;-48
2024/01/03 03:49:19;;;;;;;9.60;3.40;;;;;;;9.04;29.86;99852.02;104799;1271;61911;-48
2024/01/03 03:51:47;;;;;;;10.10;3.30;;;;;;;9.04;29.81;99849.94;105184;1269;66351;-48
2024/01/03 03:54:15;;;;;;;10.60;3.70;;;;;;;9.00;29.74;99850.12;105405;1268;59710;-50
2024/01/03 03:56:42;;;;;;;8.20;3.40;;;;;;;8.96;29.69;99850.78;104816;1266;59477;-50
2024/01/03 03:59:10;;;;;;;10.50;4.20;;;;;;;8.90;29.74;99848.20;104821;1261;64235;-50
2024/01/03 04:01:38;;;;;;;7.30;3.20;;;;;;;8.84;29.79;99843.23;105209;1262;61441;-49
2024/01/03 04:04:05;;;;;;;9.40;2.60;;;;;;;8.79;29.76;99844.89;105236;1258;63710;-48
2024/01/03 04:06:33;;;;;;;10.00;3.70;;;;;;;8.72;29.73;99840.69;106182;1257;59743;-49
2024/01/03 04:09:01;;;;;;;10.90;4.00;;;;;;;8.65;29.90;99842.16;105025;1265;59573;-51
2024/01/03 04:11:28;;;;;;;8.40;3.20;;;;;;;8.52;29.99;99844.36;105201;1257;64151;-50
2024/01/03 04:13:56;;;;;;;10.80;3.90;;;;;;;8.26;30.31;99842.19;105185;1261;61339;-49
2024/01/03 04:16:24;;;;;;;9.40;3.30;;;;;;;8.16;30.47;99841.63;105079;1263;63770;-49
2024/01/03 04:18:51;;;;;;;8.70;4.10;;;;;;;8.13;30.58;99846.77;104918;1261;59642;-48
2024/01/03 04:21:19;;;;;;;10.90;4.70;;;;;;;8.14;30.64;99848.79;104950;1255;59552;-48
2024/01/03 04:23:46;;;;;;;8.20;3.50;;;;;;;8.14;30.52;99849.98;105058;1261;64095;-49
2024/01/03 04:26:14;;;;;;;10.10;3.80;;;;;;;8.12;30.52;99854.14;104991;1267;64243;-48
2024/01/03 04:28:42;;;;;;;9.30;2.80;;;;;;;8.09;30.59;99851.91;105016;1257;63717;-49
2024/01/03 04:31:09;;;;;;;10.70;4.10;;;;;;;8.10;30.61;99855.34;104968;1256;60898;-48
2024/01/03 04:33:37;;;;;;;10.40;3.60;;;;;;;8.09;30.67;99862.94;105035;1261;60039;-49
2024/01/03 04:36:05;;;;;;;12.10;4.20;;;;;;;8.09;30.72;99862.40;105409;1260;64569;-48
2024/01/03 04:38:33;;;;;;;11.20;4.20;;;;;;;8.09;30.75;99862.41;105319;1263;61662;-50
2024/01/03 04:41:01;;;;;;;10.20;3.30;;;;;;;8.05;30.79;99862.36;104934;1259;63712;-49
2024/01/03 04:43:29;;;;;;;7.90;2.80;;;;;;;8.03;30.95;99859.41;104905;1262;59761;-49
2024/01/03 04:45:56;;;;;;;11.50;3.90;;;;;;;8.00;30.94;99849.63;105304;1257;61242;-48
2024/01/03 04:48:24;;;;;;;7.60;3.20;;;;;;;7.98;31.06;99847.55;105588;1261;64074;-49
2024/01/03 04:50:51;;;;;;;12.20;4.40;;;;;;;7.96;31.11;99845.98;105057;1264;61301;-50
2024/01/03 04:53:19;;;;;;;9.30;4.50;;;;;;;7.95;31.23;99840.40;105657;1260;63789;-48
2024/01/03 04:55:47;;;;;;;10.20;3.70;;;;;;;7.95;31.29;99839.23;105713;1263;59638;-47
2024/01/03 04:58:14;;;;;;;9.20;4.20;;;;;;;7.95;31.30;99827.85;105148;1260;59666;-48
2024/01/03 05:00:42;;;;;;;8.90;4.00;;;;;;;7.94;31.18;99821.48;105196;1257;62802;-48
2024/01/03 05:03:11;;;;;;;10.60;3.70;;;;;;;7.91;31.17;99820.18;105140;1257;61367;-49
2024/01/03 05:05:39;;;;;;;8.10;3.30;;;;;;;7.91;31.25;99828.69;105242;1263;72759;-49
2024/01/03 05:08:07;;;;;;;8.20;3.50;;;;;;;7.89;31.24;99826.20;105180;1258;59583;-49
2024/01/03 05:10:35;;;;;;;12.50;4.50;;;;;;;7.90;31.20;99824.75;105219;1261;59635;-48
2024/01/03 05:13:03;;;;;;;8.30;3.40;;;;;;;7.90;31.24;99821.48;105126;1262;64157;-49
2024/01/03 05:15:31;;;;;;;8.00;3.90;;;;;;;7.88;31.25;99823.91;105584;1261;61350;-49
2024/01/03 05:17:58;;;;;;;10.30;3.60;;;;;;;7.86;31.34;99827.90;105194;1270;63729;-49
2024/01/03 05:20:26;;;;;;;14.10;5.00;;;;;;;7.86;31.39;99834.47;105159;1262;59762;-48
2024/01/03 05:22:54;;;;;;;10.80;4.00;;;;;;;7.87;31.38;99835.84;105848;1254;59636;-48
2024/01/03 05:25:22;;;;;;;9.30;3.90;;;;;;;7.85;31.38;99837.71;106115;1258;64154;-48
2024/01/03 05:27:50;;;;;;;10.20;3.40;;;;;;;7.83;31.47;99842.76;105421;1256;61373;-47
2024/01/03 05:30:17;;;;;;;10.60;4.50;;;;;;;7.84;31.53;99843.41;105449;1254;63885;-49
2024/01/03 05:32:45;;;;;;;10.40;3.90;;;;;;;7.84;31.55;99850.52;105378;1254;59656;-48
2024/01/03 05:35:13;;;;;;;11.70;4.60;;;;;;;7.85;31.54;99853.23;106194;1256;59804;-47
2024/01/03 05:37:41;;;;;;;9.60;3.30;;;;;;;7.87;31.48;99851.02;105399;1254;62888;-48
2024/01/03 05:40:09;;;;;;;11.10;4.80;;;;;;;7.92;31.47;99852.05;105489;1256;61416;-50
2024/01/03 05:42:37;;;;;;;7.30;3.90;;;;;;;7.94;31.48;99855.91;105567;1256;63728;-48
2024/01/03 05:45:05;;;;;;;14.40;3.00;;;;;;;7.98;31.44;99855.19;105533;1254;59665;-49
2024/01/03 05:47:32;;;;;;;12.00;3.70;;;;;;;8.09;31.33;99858.59;105828;1257;59824;-49
2024/01/03 05:50:00;;;;;;;11.80;3.80;;;;;;;8.18;31.20;99860.64;105487;1258;64074;-48
2024/01/03 05:52:28;;;;;;;13.10;4.30;;;;;;;8.26;31.12;99862.14;105747;1258;60353;-48
2024/01/03 05:54:56;;;;;;;12.00;4.10;;;;;;;8.34;31.09;99860.81;105455;1255;63752;-49
2024/01/03 05:57:24;;;;;;;10.00;3.80;;;;;;;8.46;31.06;99854.16;105869;1257;59797;-49
2024/01/03 05:59:51;;;;;;;9.20;3.20;;;;;;;8.58;30.96;99847.05;105382;1253;59695;-49
2024/01/03 06:02:19;;;;;;;10.40;4.10;;;;;;;8.64;30.93;99848.48;105520;1252;62834;-49
2024/01/03 06:04:47;;;;;;;12.70;5.10;;;;;;;8.69;30.96;99846.37;105551;1257;61370;-50
2024/01/03 06:07:15;;;;;;;8.50;4.00;;;;;;;8.71;30.85;99847.75;106027;1256;63688;-49
2024/01/03 06:09:43;;;;;;;9.80;4.20;;;;;;;8.69;30.82;99847.40;105478;1257;59666;-49
2024/01/03 06:12:11;;;;;;;15.90;5.00;;;;;;;8.68;30.70;99842.04;105411;1254;59852;-49
2024/01/03 06:14:41;;;;;;;8.60;4.40;;;;;;;8.66;30.68;99838.04;105588;1255;64040;-51
2024/01/03 06:17:09;;;;;;;13.50;5.50;;;;;;;8.63;30.65;99832.83;105498;1254;61510;-48
2024/01/03 06:19:37;;;;;;;14.20;5.20;;;;;;;8.58;30.76;99830.15;105496;1256;63685;-48
2024/01/03 06:22:05;;;;;;;13.00;4.50;;;;;;;8.55;30.83;99829.13;105534;1253;59974;-50
2024/01/03 06:24:32;;;;;;;12.10;4.40;;;;;;;8.54;30.89;99825.73;105390;1254;60218;-50
2024/01/03 06:27:00;;;;;;;10.70;4.70;;;;;;;8.49;30.98;99826.09;105485;1254;63097;-49
2024/01/03 06:29:28;;;;;;;9.80;4.20;;;;;;;8.47;31.00;99823.12;105826;1254;61401;-49
2024/01/03 06:31:55;;;;;;;10.20;4.10;;;;;;;8.48;31.01;99820.95;105479;1257;62479;-50
2024/01/03 06:34:23;;;;;;;12.00;4.80;;;;;;;8.45;31.00;99814.40;105449;1254;59766;-49
2024/01/03 06:36:51;;;;;;;10.00;3.90;;;;;;;8.42;31.06;99808.99;105389;1257;59549;-48
2024/01/03 06:39:18;;;;;;;12.50;4.70;;;;;;;8.41;31.10;99809.09;105350;1254;64131;-49
2024/01/03 06:41:46;;;;;;;12.40;4.30;;;;;;;8.41;31.05;99810.86;105385;1257;61354;-49
2024/01/03 06:44:14;;;;;;;12.80;4.40;;;;;;;8.39;31.10;99808.14;105389;1254;64281;-49
2024/01/03 06:46:41;;;;;;;9.20;4.20;;;;;;;8.40;31.10;99803.56;105418;1254;59678;-49
2024/01/03 06:49:12;;;;;;;11.10;4.30;;;;;;;8.41;31.19;99794.77;105373;1258;59567;-49
2024/01/03 06:51:40;;;;;;;10.80;4.50;;;;;;;8.41;31.33;99793.72;105504;1258;64151;-48
2024/01/03 06:54:07;;;;;;;8.90;3.60;;;;;;;8.41;31.45;99794.39;105363;1254;61364;-50
2024/01/03 06:56:35;;;;;;;13.10;5.20;;;;;;;8.46;31.53;99796.43;105614;1256;62417;-49
2024/01/03 06:59:03;;;;;;;11.90;4.20;;;;;;;8.51;31.59;99797.77;105537;1257;59644;-51
2024/01/03 07:01:31;;;;;;;12.90;4.40;;;;;;;8.56;31.66;99794.09;105860;1255;59807;-50
2024/01/03 07:04:00;;;;;;;12.00;3.70;;;;;;;8.58;31.78;99788.14;105741;1257;64090;-48
2024/01/03 07:06:28;;;;;;;11.70;4.60;;;;;;;8.56;31.80;99776.45;105786;1254;68267;-49
2024/01/03 07:08:56;;;;;;;9.50;3.80;;;;;;;8.55;31.88;99778.23;105387;1254;63658;-47
2024/01/03 07:11:23;;;;;;;12.90;4.20;;;;;;;8.58;32.03;99775.71;105344;1254;60578;-48
2024/01/03 07:13:51;;;;;;;13.10;4.90;;;;;;;8.60;32.13;99771.56;106014;1254;59504;-48
2024/01/03 07:16:19;;;;;;;17.50;5.30;;;;;;;8.59;32.28;99764.11;105404;1254;64944;-48
2024/01/03 07:18:46;;;;;;;10.00;4.20;;;;;;;8.59;32.31;99756.42;105370;1254;61502;-47
2024/01/03 07:21:14;;;;;;;7.90;3.60;;;;;;;8.59;32.43;99750.16;105376;1258;63757;-48
2024/01/03 07:23:42;;;;;;;11.00;3.90;;;;;;;8.66;32.32;99744.14;105217;1259;60438;-48
2024/01/03 07:26:10;;;;;;;8.40;2.90;;;;;;;8.79;32.34;99740.98;106350;1254;60606;-48
2024/01/03 07:28:37;;;;;;;13.60;3.80;;;;;;;8.92;32.36;99743.06;105426;1254;63711;-48
2024/01/03 07:31:05;;;;;;;12.40;4.90;;;;;;;9.04;32.37;99741.37;105567;1254;63547;-47
2024/01/03 07:33:32;;;;;;;13.10;4.60;;;;;;;9.15;32.30;99744.06;105457;1258;62945;-48
2024/01/03 07:36:00;;;;;;;13.10;3.30;;;;;;;9.28;32.27;99739.66;105452;1257;60424;-49
2024/01/03 07:38:28;;;;;;;11.90;3.80;;;;;;;9.40;32.20;99736.02;105418;1257;60693;-48
2024/01/03 07:40:56;;;;;;;7.70;3.20;;;;;;;9.48;32.17;99732.34;105895;1254;63810;-48
2024/01/03 07:43:24;;;;;;;11.00;4.80;;;;;;;9.52;32.13;99723.79;105462;1257;60473;-49
2024/01/03 07:45:51;;;;;;;11.80;4.70;;;;;;;9.54;32.08;99720.48;105953;1254;62443;-49
2024/01/03 07:48:19;;;;;;;12.70;5.90;;;;;;;9.58;32.13;99718.09;105487;1258;61861;-50
2024/01/03 07:50:47;;;;;;;14.10;5.60;;;;;;;9.57;32.03;99717.12;105496;1254;60457;-55
2024/01/03 07:53:14;;;;;;;13.20;5.00;;;;;;;9.51;32.16;99717.40;105295;1253;64913;-50
2024/01/03 07:55:42;;;;;;;10.80;4.40;;;;;;;9.47;32.16;99716.12;105649;1255;62008;-47
2024/01/03 07:58:10;;;;;;;11.70;5.70;;;;;;;9.50;32.21;99713.44;105377;1254;63855;-50
2024/01/03 08:00:37;;;;;;;11.70;4.80;;;;;;;9.64;32.15;99708.63;105387;1254;60581;-48
2024/01/03 08:03:05;;;;;;;12.40;4.70;;;;;;;9.65;32.17;99705.66;105358;1254;60726;-48
2024/01/03 08:05:33;;;;;;;10.30;5.40;;;;;;;9.62;32.26;99707.54;105726;1254;65418;-48
2024/01/03 08:08:01;;;;;;;12.20;5.80;;;;;;;9.60;32.44;99710.50;105426;1254;61382;-49
2024/01/03 08:10:28;;;;;;;16.00;6.00;;;;;;;9.55;32.44;99706.94;105462;1252;71185;-48
2024/01/03 08:12:56;;;;;;;11.40;4.80;;;;;;;9.52;32.43;99704.39;105379;1257;60451;-47
2024/01/03 08:15:23;;;;;;;10.30;3.80;;;;;;;9.46;32.52;99699.80;106024;1256;60590;-48
2024/01/03 08:17:51;;;;;;;12.10;5.10;;;;;;;9.40;32.75;99697.21;105478;1255;64857;-48
2024/01/03 08:20:19;;;;;;;13.50;5.70;;;;;;;9.41;32.86;99692.73;105379;1254;61312;-48
2024/01/03 08:22:47;;;;;;;12.30;4.30;;;;;;;9.44;32.93;99690.84;105437;1252;62866;-47
2024/01/03 08:25:15;;;;;;;13.00;6.20;;;;;;;9.45;33.04;99687.94;105543;1254;60959;-48
2024/01/03 08:27:42;;;;;;;13.00;5.80;;;;;;;9.47;33.11;99683.41;105599;1252;60644;-48
2024/01/03 08:30:11;;;;;;;12.60;5.30;;;;;;;9.45;33.23;99676.56;105472;1254;64847;-47
2024/01/03 08:32:40;;;;;;;11.50;5.10;;;;;;;9.45;33.27;99671.15;105549;1254;61351;-47
2024/01/03 08:35:08;;;;;;;12.80;3.30;;;;;;;9.57;33.20;99661.54;105562;1254;63780;-48
2024/01/03 08:37:36;;;;;;;9.50;3.70;;;;;;;9.77;33.17;99655.62;105477;1254;60582;-49
2024/01/03 08:40:05;;;;;;;11.80;3.80;;;;;;;9.90;33.08;99651.66;105427;1254;60532;-50
2024/01/03 08:42:33;;;;;;;10.20;3.40;;;;;;;10.12;33.07;99647.20;105542;1254;63714;-50
2024/01/03 08:45:01;;;;;;;8.80;3.70;;;;;;;10.29;33.07;99643.46;105380;1257;61544;-49
2024/01/03 08:47:29;;;;;;;11.70;4.30;;;;;;;10.38;32.87;99637.36;105767;1257;63961;-51
2024/01/03 08:49:56;;;;;;;13.70;6.50;;;;;;;10.48;32.74;99636.86;105454;1257;61018;-49
2024/01/03 08:52:24;;;;;;;10.90;4.20;;;;;;;10.59;32.63;99630.96;105553;1253;60515;-49
2024/01/03 08:54:52;;;;;;;12.90;5.50;;;;;;;10.64;32.37;99627.67;105470;1253;63684;-48
2024/01/03 08:57:19;;;;;;;11.00;4.20;;;;;;;10.66;32.27;99627.50;106016;1254;72340;-48
2024/01/03 08:59:47;;;;;;;11.90;4.30;;;;;;;10.65;32.05;99620.94;105327;1253;62572;-49
2024/01/03 09:02:15;;;;;;;11.50;4.90;;;;;;;10.60;32.15;99616.58;105441;1256;60402;-48
2024/01/03 09:04:42;;;;;;;11.00;4.40;;;;;;;10.55;32.06;99611.15;105517;1253;62237;-48
2024/01/03 09:07:10;;;;;;;12.90;4.30;;;;;;;10.47;32.17;99612.36;105417;1253;64901;-48
2024/01/03 09:09:39;;;;;;;14.60;5.50;;;;;;;10.43;32.27;99612.42;105345;1253;71783;-49
2024/01/03 09:12:07;;;;;;;10.20;4.60;;;;;;;10.39;32.29;99605.97;105478;1253;64246;-60
2024/01/03 09:14:35;;;;;;;12.30;5.40;;;;;;;10.37;32.46;99601.19;106560;1253;60591;-49
2024/01/03 09:17:02;;;;;;;10.90;4.60;;;;;;;10.36;32.41;99599.74;106385;1257;60552;-48
2024/01/03 09:19:30;;;;;;;8.80;4.40;;;;;;;10.36;32.52;99590.45;105433;1254;63732;-50
2024/01/03 09:21:59;;;;;;;12.10;4.40;;;;;;;10.36;32.57;99585.73;105663;1253;61463;-48
2024/01/03 09:24:29;;;;;;;11.70;4.40;;;;;;;10.34;32.62;99580.06;105373;1252;63777;-49
2024/01/03 09:26:57;;;;;;;14.00;5.50;;;;;;;10.36;32.51;99574.08;105749;1254;60812;-49
2024/01/03 09:29:25;;;;;;;12.70;5.30;;;;;;;10.37;32.52;99569.80;105951;1253;60530;-48
2024/01/03 09:31:53;;;;;;;11.50;5.00;;;;;;;10.36;32.54;99570.27;105363;1256;64736;-48
2024/01/03 09:34:21;;;;;;;11.10;5.20;;;;;;;10.35;32.56;99569.00;105699;1254;61385;-48
2024/01/03 09:36:48;;;;;;;12.20;5.00;;;;;;;10.30;32.74;99567.31;105269;1254;63783;-48
2024/01/03 09:39:16;;;;;;;11.00;4.80;;;;;;;10.30;32.85;99559.59;105374;1254;60539;-48
2024/01/03 09:41:44;;;;;;;13.30;6.10;;;;;;;10.32;33.00;99550.84;105448;1257;60444;-48
2024/01/03 09:44:12;;;;;;;11.50;5.60;;;;;;;10.33;33.08;99545.34;105535;1254;63760;-50
2024/01/03 09:46:42;;;;;;;8.30;3.10;;;;;;;10.39;33.16;99540.34;105543;1254;61440;-49
2024/01/03 09:49:09;;;;;;;10.90;3.50;;;;;;;10.54;33.15;99536.66;105612;1253;64944;-48
2024/01/03 09:51:37;;;;;;;9.90;4.90;;;;;;;10.70;33.06;99529.09;105552;1257;60683;-47
2024/01/03 09:54:08;;;;;;;12.30;4.60;;;;;;;10.85;33.04;99528.58;105251;1257;60445;-49
2024/01/03 09:56:38;;;;;;;8.10;3.80;;;;;;;10.97;32.85;99520.89;105365;1257;65318;-48
2024/01/03 09:59:08;;;;;;;10.40;4.70;;;;;;;11.07;32.74;99512.09;105601;1253;61405;-48
2024/01/03 10:01:35;;;;;;;13.30;5.10;;;;;;;11.17;32.72;99507.00;108247;1252;62461;-49
2024/01/03 10:04:05;;;;;;;12.90;4.50;;;;;;;11.20;32.64;99499.01;105356;1253;60479;-49
2024/01/03 10:06:32;;;;;;;11.60;6.00;;;;;;;11.22;32.54;99492.39;105711;1257;60387;-49
2024/01/03 10:09:01;;;;;;;12.00;5.60;;;;;;;11.19;32.54;99487.55;105420;1254;65608;-51
2024/01/03 10:11:30;;;;;;;13.60;5.10;;;;;;;11.16;32.54;99483.95;105889;1254;61546;-51
2024/01/03 10:14:14;;;;;;;14.50;6.10;;;;;;;11.11;32.64;99478.53;105819;1258;62548;-49
2024/01/03 10:16:45;;;;;;;13.10;4.70;;;;;;;11.08;32.75;99471.23;105532;1253;60555;-49
2024/01/03 10:19:17;;;;;;;13.80;5.20;;;;;;;11.07;32.83;99462.77;105338;1253;60437;-48
2024/01/03 10:21:53;;;;;;;10.60;4.90;;;;;;;11.08;32.81;99454.95;106203;1253;65453;-48
2024/01/03 10:24:25;;;;;;;13.90;5.60;;;;;;;11.03;32.67;99449.09;105908;1253;61419;-48
2024/01/03 10:26:54;;;;;;;13.30;5.50;;;;;;;10.99;32.82;99441.95;106028;1253;64280;-48
2024/01/03 10:29:22;;;;;;;12.60;4.80;;;;;;;10.97;32.80;99437.69;105353;1259;60547;-48
2024/01/03 10:31:51;;;;;;;12.50;5.20;;;;;;;10.93;32.83;99431.73;105937;1253;60988;-48
2024/01/03 10:34:22;;;;;;;15.70;7.30;;;;;;;10.90;32.89;99427.38;106125;1254;63715;-47
2024/01/03 10:36:53;;;;;;;13.20;5.70;;;;;;;10.85;32.94;99423.83;106088;1254;60402;-53
2024/01/03 10:39:21;;;;;;;13.30;6.20;;;;;;;10.82;33.04;99413.90;105522;1257;65965;-48
2024/01/03 10:41:49;;;;;;;12.60;5.70;;;;;;;10.83;33.09;99406.41;105357;1253;60560;-47
2024/01/03 10:44:17;;;;;;;15.50;5.60;;;;;;;10.90;33.02;99398.23;105457;1252;60478;-48
2024/01/03 10:46:46;;;;;;;11.50;4.90;;;;;;;11.06;32.86;99389.13;106040;1257;64935;-49
2024/01/03 10:49:15;;;;;;;10.00;5.00;;;;;;;11.28;32.61;99383.23;105335;1254;60605;-49
2024/01/03 10:51:44;;;;;;;12.00;4.50;;;;;;;11.40;32.37;99385.45;105434;1253;64114;-49
2024/01/03 10:54:17;;;;;;;12.00;5.40;;;;;;;11.42;32.46;99379.77;105520;1256;60550;-49
2024/01/03 10:56:51;;;;;;;11.60;5.50;;;;;;;11.38;32.43;99384.55;105510;1256;60505;-48
2024/01/03 10:59:21;;;;;;;11.40;5.60;;;;;;;11.36;32.49;99387.79;106128;1253;75171;-49
2024/01/03 11:02:03;;;;;;;11.00;5.40;;;;;;;11.31;32.63;99378.78;106121;1252;61364;-49
2024/01/03 11:04:41;;;;;;;13.00;6.90;;;;;;;11.24;32.69;99371.86;105566;1253;63774;-49
2024/01/03 11:07:24;;;;;;;12.70;5.40;;;;;;;11.22;32.74;99364.02;105507;1254;60485;-49
2024/01/03 11:09:52;;;;;;;12.00;5.80;;;;;;;11.19;32.85;99360.13;105983;1253;60556;-49
2024/01/03 11:12:22;;;;;;;13.20;6.00;;;;;;;11.18;32.95;99350.77;105319;1258;67071;-49
2024/01/03 11:14:50;;;;;;;13.50;6.00;;;;;;;11.16;32.95;99343.71;105927;1253;61321;-49
2024/01/03 11:17:35;;;;;;;12.80;5.70;;;;;;;11.12;33.03;99336.27;106032;1253;64504;-50
2024/01/03 11:20:07;;;;;;;14.30;6.60;;;;;;;11.06;33.11;99334.38;105688;1257;60366;-50
2024/01/03 11:22:54;;;;;;;17.00;6.60;;;;;;;11.01;33.23;99334.58;105668;1254;60449;-48
2024/01/03 11:25:54;;;;;;;12.20;6.20;;;;;;;10.97;33.32;99335.45;106011;1251;65713;-50
2024/01/03 11:28:32;;;;;;;11.90;5.50;;;;;;;10.94;33.33;99332.17;105133;1254;61466;-49
2024/01/03 11:31:00;;;;;;;14.70;5.50;;;;;;;10.91;33.44;99331.77;105731;1257;62680;-49
2024/01/03 11:33:30;;;;;;;12.30;6.00;;;;;;;10.92;33.44;99323.84;105741;1252;61562;-48